Time;durP1;ratioP1;P1;durP2;ratioP2;P2;SDS_P1;SDS_P2;PMS_P1;PMS_P2;Temp;Humidity;BMP_temperature;BMP_pressure;BME280_temperature;BME280_humidity;BME280_pressure;Samples;Min_cycle;Max_cycle;Signal;HPM_P1;HPM_P2
2021/08/29 00:01:54;;;;;;;8.70;4.25;;;;;;;;;;5076990;28;20120;-37
2021/08/29 00:04:19;;;;;;;5.30;2.45;;;;;;;;;;5072908;28;20051;-44
2021/08/29 00:06:45;;;;;;;8.23;2.85;;;;;;;;;;5071231;28;20024;-40
2021/08/29 00:09:10;;;;;;;7.13;2.70;;;;;;;;;;5075183;28;20494;-38
2021/08/29 00:11:36;;;;;;;8.35;3.40;;;;;;;;;;5069884;28;20059;-39
2021/08/29 00:14:01;;;;;;;3.13;2.33;;;;;;;;;;5074153;28;20020;-40
2021/08/29 00:16:26;;;;;;;2.97;2.22;;;;;;;;;;5069581;28;20012;-42
2021/08/29 00:18:52;;;;;;;4.97;3.25;;;;;;;;;;5066155;28;20027;-41
2021/08/29 00:21:17;;;;;;;3.45;2.50;;;;;;;;;;5073325;28;20028;-39
2021/08/29 00:23:42;;;;;;;2.60;2.15;;;;;;;;;;5069825;28;20472;-40
2021/08/29 00:26:07;;;;;;;6.75;3.03;;;;;;;;;;5075676;28;20013;-39
2021/08/29 00:28:33;;;;;;;2.10;1.73;;;;;;;;;;5075223;28;20032;-40
2021/08/29 00:30:58;;;;;;;3.88;2.75;;;;;;;;;;5066847;28;20051;-40
2021/08/29 00:33:23;;;;;;;2.85;2.55;;;;;;;;;;5073726;28;20008;-40
2021/08/29 00:35:49;;;;;;;11.73;4.22;;;;;;;;;;5073911;28;20016;-39
2021/08/29 00:38:14;;;;;;;3.40;2.60;;;;;;;;;;5077160;28;20028;-41
2021/08/29 00:40:40;;;;;;;10.43;2.67;;;;;;;;;;5077108;28;20027;-39
2021/08/29 00:43:05;;;;;;;7.10;3.30;;;;;;;;;;5076558;28;20070;-39
2021/08/29 00:45:31;;;;;;;6.65;3.03;;;;;;;;;;5076429;28;20015;-40
2021/08/29 00:47:57;;;;;;;3.90;2.97;;;;;;;;;;5075464;28;20023;-44
2021/08/29 00:50:22;;;;;;;4.90;2.35;;;;;;;;;;5075588;28;20026;-40
2021/08/29 00:52:48;;;;;;;6.47;2.85;;;;;;;;;;5078807;28;20104;-41
2021/08/29 00:55:13;;;;;;;2.47;2.13;;;;;;;;;;5078344;28;20020;-39
2021/08/29 00:57:39;;;;;;;5.68;3.33;;;;;;;;;;5077130;28;20102;-39
2021/08/29 01:00:05;;;;;;;14.75;4.00;;;;;;;;;;5079606;28;20127;-40
2021/08/29 01:02:31;;;;;;;4.63;2.40;;;;;;;;;;5075847;28;20619;-39
2021/08/29 01:05:04;;;;;;;3.83;2.72;;;;;;;;;;5073426;28;20058;-38
2021/08/29 01:07:35;;;;;;;4.95;2.90;;;;;;;;;;5074445;28;20019;-39
2021/08/29 01:10:03;;;;;;;4.80;2.88;;;;;;;;;;5078028;28;20351;-40
2021/08/29 01:12:29;;;;;;;4.57;3.45;;;;;;;;;;5074749;28;20016;-39
2021/08/29 01:14:56;;;;;;;4.78;2.45;;;;;;;;;;5075063;28;20020;-40
2021/08/29 01:17:25;;;;;;;4.32;3.20;;;;;;;;;;5070905;28;20016;-39
2021/08/29 01:19:50;;;;;;;3.00;1.88;;;;;;;;;;5077416;28;20021;-41
2021/08/29 01:22:16;;;;;;;4.15;2.97;;;;;;;;;;5077833;28;20059;-43
2021/08/29 01:24:41;;;;;;;6.53;2.47;;;;;;;;;;5075203;28;20027;-39
2021/08/29 01:27:35;;;;;;;2.97;2.05;;;;;;;;;;5074402;28;20026;-39
2021/08/29 01:30:05;;;;;;;6.85;1.77;;;;;;;;;;5068713;28;20044;-38
2021/08/29 01:32:31;;;;;;;10.10;3.08;;;;;;;;;;5071172;28;20024;-40
2021/08/29 01:34:56;;;;;;;3.88;2.53;;;;;;;;;;5078092;28;20419;-42
2021/08/29 01:37:23;;;;;;;3.90;2.10;;;;;;;;;;5074881;28;20484;-42
2021/08/29 01:39:49;;;;;;;2.60;1.92;;;;;;;;;;5075318;28;20063;-41
2021/08/29 01:42:14;;;;;;;3.22;2.40;;;;;;;;;;5075094;28;20048;-40
2021/08/29 01:44:40;;;;;;;4.20;2.20;;;;;;;;;;5074824;28;20479;-40
2021/08/29 01:47:05;;;;;;;3.38;2.83;;;;;;;;;;5077317;28;20042;-39
2021/08/29 01:49:31;;;;;;;5.95;3.17;;;;;;;;;;5072105;28;20028;-40
2021/08/29 01:51:57;;;;;;;8.50;2.85;;;;;;;;;;5078925;28;20526;-39
2021/08/29 01:54:22;;;;;;;5.75;2.58;;;;;;;;;;5075706;28;20023;-38
2021/08/29 01:56:56;;;;;;;8.23;3.05;;;;;;;;;;5074328;28;20024;-38
2021/08/29 01:59:21;;;;;;;3.22;2.13;;;;;;;;;;5073285;28;20024;-38
2021/08/29 02:01:47;;;;;;;4.55;2.83;;;;;;;;;;5075845;28;20422;-38
2021/08/29 02:04:12;;;;;;;7.95;2.53;;;;;;;;;;5075754;28;20047;-38
2021/08/29 02:06:41;;;;;;;2.53;1.73;;;;;;;;;;5075082;28;20383;-39
2021/08/29 02:09:07;;;;;;;6.05;2.35;;;;;;;;;;5074086;28;20017;-38
2021/08/29 02:11:44;;;;;;;2.35;2.15;;;;;;;;;;5074815;28;20031;-38
2021/08/29 02:14:14;;;;;;;3.63;2.38;;;;;;;;;;5078599;28;20040;-38
2021/08/29 02:16:40;;;;;;;3.47;2.50;;;;;;;;;;5073067;28;20099;-38
2021/08/29 02:19:06;;;;;;;4.60;2.83;;;;;;;;;;5072900;28;20024;-38
2021/08/29 02:21:31;;;;;;;4.70;2.22;;;;;;;;;;5080190;28;20036;-38
2021/08/29 02:23:58;;;;;;;5.25;3.45;;;;;;;;;;5072061;28;20488;-39
2021/08/29 02:26:27;;;;;;;5.85;3.08;;;;;;;;;;5077706;28;20021;-38
2021/08/29 02:28:52;;;;;;;8.30;3.85;;;;;;;;;;5073832;28;20016;-40
2021/08/29 02:31:19;;;;;;;4.80;2.72;;;;;;;;;;5072419;28;20024;-38
2021/08/29 02:33:45;;;;;;;3.25;2.40;;;;;;;;;;5070820;28;20044;-39
2021/08/29 02:36:10;;;;;;;3.10;2.47;;;;;;;;;;5072944;28;20766;-39
2021/08/29 02:38:36;;;;;;;8.25;3.58;;;;;;;;;;5067332;28;20563;-38
2021/08/29 02:41:02;;;;;;;3.85;3.17;;;;;;;;;;5075993;28;20028;-38
2021/08/29 02:43:28;;;;;;;9.32;2.97;;;;;;;;;;5078067;28;20468;-38
2021/08/29 02:45:54;;;;;;;3.47;2.70;;;;;;;;;;5072636;28;20124;-38
2021/08/29 02:48:21;;;;;;;3.40;2.50;;;;;;;;;;5073558;28;20579;-38
2021/08/29 02:50:47;;;;;;;7.50;3.30;;;;;;;;;;5080206;28;20020;-38
2021/08/29 02:53:14;;;;;;;3.70;2.22;;;;;;;;;;5075142;28;20028;-38
2021/08/29 02:55:40;;;;;;;8.63;3.17;;;;;;;;;;5070787;28;20073;-38
2021/08/29 02:58:06;;;;;;;4.13;2.70;;;;;;;;;;5074004;28;20025;-38
2021/08/29 03:00:32;;;;;;;11.48;2.60;;;;;;;;;;5071294;28;20024;-38
2021/08/29 03:02:57;;;;;;;3.72;2.72;;;;;;;;;;5072951;28;20497;-39
2021/08/29 03:05:23;;;;;;;11.48;3.13;;;;;;;;;;5074147;28;20041;-38
2021/08/29 03:07:49;;;;;;;4.85;3.42;;;;;;;;;;5074585;28;20157;-38
2021/08/29 03:10:14;;;;;;;4.88;3.05;;;;;;;;;;5074715;28;20392;-38
2021/08/29 03:12:41;;;;;;;5.28;2.90;;;;;;;;;;5073727;28;20400;-38
2021/08/29 03:15:06;;;;;;;3.85;2.58;;;;;;;;;;5077736;28;20013;-38
2021/08/29 03:17:32;;;;;;;3.22;2.10;;;;;;;;;;5075043;28;20487;-38
2021/08/29 03:19:59;;;;;;;4.15;2.92;;;;;;;;;;5072998;28;20016;-38
2021/08/29 03:22:24;;;;;;;6.35;2.53;;;;;;;;;;5076086;28;20027;-39
2021/08/29 03:24:50;;;;;;;4.15;2.90;;;;;;;;;;5072316;28;20013;-38
2021/08/29 03:27:15;;;;;;;3.38;2.20;;;;;;;;;;5071087;28;20021;-38
2021/08/29 03:29:41;;;;;;;3.97;2.15;;;;;;;;;;5071942;28;20024;-39
2021/08/29 03:32:06;;;;;;;3.38;2.80;;;;;;;;;;5075620;28;20439;-38
2021/08/29 03:34:34;;;;;;;3.58;2.22;;;;;;;;;;5074317;28;20021;-38
2021/08/29 03:36:59;;;;;;;4.28;2.20;;;;;;;;;;5076368;28;20020;-38
2021/08/29 03:39:26;;;;;;;2.90;1.88;;;;;;;;;;5077332;28;20039;-38
2021/08/29 03:41:54;;;;;;;4.05;2.60;;;;;;;;;;5074442;28;20024;-38
2021/08/29 03:44:19;;;;;;;2.92;2.65;;;;;;;;;;5078337;28;20021;-38
2021/08/29 03:46:44;;;;;;;3.20;2.72;;;;;;;;;;5076195;28;20070;-39
2021/08/29 03:49:10;;;;;;;4.63;3.28;;;;;;;;;;5077331;28;20445;-38
2021/08/29 03:51:37;;;;;;;3.25;2.78;;;;;;;;;;5076450;28;20017;-38
2021/08/29 03:54:04;;;;;;;3.45;2.72;;;;;;;;;;5078610;28;20028;-38
2021/08/29 03:56:30;;;;;;;5.65;2.17;;;;;;;;;;5075097;28;20020;-38
2021/08/29 03:58:55;;;;;;;2.03;1.67;;;;;;;;;;5077623;28;20029;-39
2021/08/29 04:01:21;;;;;;;5.28;3.70;;;;;;;;;;5073596;28;20056;-39
2021/08/29 04:03:46;;;;;;;7.68;3.47;;;;;;;;;;5069890;28;20411;-38
2021/08/29 04:06:13;;;;;;;6.28;3.97;;;;;;;;;;5070623;28;20079;-39
2021/08/29 04:08:42;;;;;;;2.75;1.77;;;;;;;;;;5080003;28;20021;-38
2021/08/29 04:11:08;;;;;;;2.67;1.63;;;;;;;;;;5074122;28;20056;-38
2021/08/29 04:13:35;;;;;;;4.20;1.95;;;;;;;;;;5074719;28;20031;-38
2021/08/29 04:16:04;;;;;;;4.07;2.97;;;;;;;;;;5075661;28;20047;-38
2021/08/29 04:18:34;;;;;;;3.75;2.30;;;;;;;;;;5075741;28;20021;-38
2021/08/29 04:21:00;;;;;;;3.50;2.63;;;;;;;;;;5077315;28;20024;-39
2021/08/29 04:23:25;;;;;;;2.25;1.77;;;;;;;;;;5078643;28;20020;-38
2021/08/29 04:25:51;;;;;;;3.55;1.90;;;;;;;;;;5071073;28;20484;-38
2021/08/29 04:28:16;;;;;;;2.60;1.27;;;;;;;;;;5082023;28;20112;-40
2021/08/29 04:30:42;;;;;;;4.43;1.92;;;;;;;;;;5077538;28;20028;-41
2021/08/29 04:33:07;;;;;;;2.20;1.48;;;;;;;;;;5074196;28;20039;-39
2021/08/29 04:35:33;;;;;;;5.10;1.35;;;;;;;;;;5076800;28;20690;-39
2021/08/29 04:37:58;;;;;;;2.45;1.80;;;;;;;;;;5075211;28;20024;-39
2021/08/29 04:40:23;;;;;;;3.30;1.92;;;;;;;;;;5075845;28;20036;-39
2021/08/29 04:42:48;;;;;;;3.40;1.90;;;;;;;;;;5073818;28;20035;-39
2021/08/29 04:45:14;;;;;;;4.93;2.42;;;;;;;;;;5074451;28;20027;-39
2021/08/29 04:47:39;;;;;;;3.67;1.80;;;;;;;;;;5075524;28;20560;-39
2021/08/29 04:50:05;;;;;;;2.88;1.88;;;;;;;;;;5073029;28;20028;-39
2021/08/29 04:52:30;;;;;;;4.63;2.85;;;;;;;;;;5078244;28;20024;-38
2021/08/29 04:54:56;;;;;;;2.47;1.58;;;;;;;;;;5076809;28;20025;-39
2021/08/29 04:57:21;;;;;;;3.85;1.80;;;;;;;;;;5078044;28;20212;-38
2021/08/29 04:59:46;;;;;;;3.55;1.45;;;;;;;;;;5074794;28;20107;-38
2021/08/29 05:02:12;;;;;;;2.65;1.83;;;;;;;;;;5076422;28;20043;-39
2021/08/29 05:04:37;;;;;;;3.58;1.63;;;;;;;;;;5070411;28;20416;-39
2021/08/29 05:07:03;;;;;;;2.72;1.67;;;;;;;;;;5074339;28;20401;-40
2021/08/29 05:09:28;;;;;;;2.33;1.63;;;;;;;;;;5076874;28;20103;-39
2021/08/29 05:11:53;;;;;;;2.10;1.90;;;;;;;;;;5072453;28;20021;-39
2021/08/29 05:14:18;;;;;;;2.70;2.00;;;;;;;;;;5075510;28;20212;-38
2021/08/29 05:16:44;;;;;;;3.92;2.00;;;;;;;;;;5075566;28;20024;-38
2021/08/29 05:19:09;;;;;;;1.60;1.35;;;;;;;;;;5077473;28;20016;-39
2021/08/29 05:21:34;;;;;;;2.78;1.20;;;;;;;;;;5076770;28;20020;-38
2021/08/29 05:23:59;;;;;;;2.15;1.35;;;;;;;;;;5067040;28;20520;-38
2021/08/29 05:26:25;;;;;;;3.47;2.42;;;;;;;;;;5077174;28;20476;-38
2021/08/29 05:28:50;;;;;;;3.42;2.00;;;;;;;;;;5073200;28;20024;-38
2021/08/29 05:31:15;;;;;;;4.35;2.53;;;;;;;;;;5073958;28;20024;-38
2021/08/29 05:33:41;;;;;;;2.90;1.40;;;;;;;;;;5077302;28;20033;-38
2021/08/29 05:36:06;;;;;;;4.18;2.17;;;;;;;;;;5074932;28;20020;-38
2021/08/29 05:38:31;;;;;;;4.15;2.13;;;;;;;;;;5079139;28;20023;-38
2021/08/29 05:40:57;;;;;;;2.85;2.47;;;;;;;;;;5075881;28;20056;-38
2021/08/29 05:43:22;;;;;;;3.47;2.20;;;;;;;;;;5075374;28;20095;-38
2021/08/29 05:45:47;;;;;;;4.65;2.35;;;;;;;;;;5078781;28;20074;-38
2021/08/29 05:48:12;;;;;;;9.07;2.70;;;;;;;;;;5077896;28;20069;-38
2021/08/29 05:50:38;;;;;;;4.13;2.35;;;;;;;;;;5073058;28;20420;-39
2021/08/29 05:53:03;;;;;;;5.78;5.20;;;;;;;;;;5072994;28;20526;-38
2021/08/29 05:55:28;;;;;;;4.38;3.50;;;;;;;;;;5079984;28;20027;-38
2021/08/29 05:57:54;;;;;;;10.98;6.47;;;;;;;;;;5072881;28;20025;-39
2021/08/29 06:00:19;;;;;;;6.63;5.18;;;;;;;;;;5069672;28;20387;-41
2021/08/29 06:02:45;;;;;;;7.68;5.13;;;;;;;;;;5074629;28;20101;-39
2021/08/29 06:05:10;;;;;;;9.13;5.45;;;;;;;;;;5073708;28;20092;-38
2021/08/29 06:07:35;;;;;;;4.80;3.85;;;;;;;;;;5076617;28;20016;-38
2021/08/29 06:10:00;;;;;;;9.80;6.47;;;;;;;;;;5072904;28;20016;-39
2021/08/29 06:12:26;;;;;;;14.35;7.60;;;;;;;;;;5076304;28;20072;-38
2021/08/29 06:14:51;;;;;;;8.48;7.57;;;;;;;;;;5072776;28;20021;-38
2021/08/29 06:17:16;;;;;;;20.13;9.23;;;;;;;;;;5075764;28;20056;-39
2021/08/29 06:19:42;;;;;;;9.70;8.77;;;;;;;;;;5075242;28;20020;-39
2021/08/29 06:22:07;;;;;;;10.25;9.25;;;;;;;;;;5072013;28;20032;-39
2021/08/29 06:24:32;;;;;;;12.55;8.50;;;;;;;;;;5077737;28;20008;-39
2021/08/29 06:26:57;;;;;;;10.10;9.05;;;;;;;;;;5076076;28;20020;-39
2021/08/29 06:29:23;;;;;;;8.60;7.78;;;;;;;;;;5075712;28;20021;-39
2021/08/29 06:31:48;;;;;;;9.07;7.80;;;;;;;;;;5077434;28;20411;-39
2021/08/29 06:34:13;;;;;;;8.57;7.47;;;;;;;;;;5073251;28;20025;-39
2021/08/29 06:36:39;;;;;;;8.75;7.85;;;;;;;;;;5074987;28;20028;-40
2021/08/29 06:39:04;;;;;;;9.27;8.02;;;;;;;;;;5075335;28;20443;-37
2021/08/29 06:41:29;;;;;;;9.00;7.22;;;;;;;;;;5073105;28;20013;-37
2021/08/29 06:43:56;;;;;;;6.55;5.95;;;;;;;;;;5076091;28;20015;-38
2021/08/29 06:46:21;;;;;;;10.57;6.97;;;;;;;;;;5071533;28;20016;-38
2021/08/29 06:48:46;;;;;;;9.90;8.18;;;;;;;;;;5073078;28;20024;-38
2021/08/29 06:51:12;;;;;;;9.98;6.43;;;;;;;;;;5074501;28;20032;-38
2021/08/29 06:53:37;;;;;;;6.97;6.25;;;;;;;;;;5073866;28;20098;-38
2021/08/29 06:56:02;;;;;;;9.65;5.25;;;;;;;;;;5073776;28;20062;-38
2021/08/29 06:58:28;;;;;;;5.38;3.70;;;;;;;;;;5072638;28;20020;-38
2021/08/29 07:00:53;;;;;;;6.68;5.40;;;;;;;;;;5075226;28;20025;-38
2021/08/29 07:03:18;;;;;;;10.40;6.28;;;;;;;;;;5075139;28;20415;-38
2021/08/29 07:05:44;;;;;;;5.40;4.75;;;;;;;;;;5075026;28;20046;-38
2021/08/29 07:08:09;;;;;;;5.93;4.57;;;;;;;;;;5074426;28;20366;-39
2021/08/29 07:10:34;;;;;;;7.45;6.05;;;;;;;;;;5075101;28;20500;-38
2021/08/29 07:12:59;;;;;;;6.28;4.40;;;;;;;;;;5073477;28;20020;-39
2021/08/29 07:15:25;;;;;;;6.57;5.88;;;;;;;;;;5072561;28;20024;-38
2021/08/29 07:17:51;;;;;;;5.35;4.70;;;;;;;;;;5071049;28;20077;-38
2021/08/29 07:20:17;;;;;;;6.95;5.03;;;;;;;;;;5075483;28;20024;-38
2021/08/29 07:22:42;;;;;;;5.00;3.47;;;;;;;;;;5073235;28;20099;-38
2021/08/29 07:25:07;;;;;;;8.25;4.90;;;;;;;;;;5069949;28;20048;-39
2021/08/29 07:27:33;;;;;;;5.45;4.65;;;;;;;;;;5075331;28;20031;-41
2021/08/29 07:29:58;;;;;;;6.75;4.15;;;;;;;;;;5072757;28;20020;-38
2021/08/29 07:32:23;;;;;;;6.07;4.72;;;;;;;;;;5073238;28;20429;-38
2021/08/29 07:34:48;;;;;;;6.25;4.95;;;;;;;;;;5075173;28;20031;-38
2021/08/29 07:37:14;;;;;;;3.67;3.08;;;;;;;;;;5076659;28;20012;-38
2021/08/29 07:39:39;;;;;;;5.50;3.88;;;;;;;;;;5079650;28;20020;-38
2021/08/29 07:42:04;;;;;;;10.40;5.60;;;;;;;;;;5075948;28;20027;-38
2021/08/29 07:44:30;;;;;;;5.68;4.18;;;;;;;;;;5077765;28;20502;-38
2021/08/29 07:46:55;;;;;;;4.40;3.60;;;;;;;;;;5077941;28;20016;-38
2021/08/29 07:49:20;;;;;;;7.82;5.07;;;;;;;;;;5079317;28;20017;-38
2021/08/29 07:51:45;;;;;;;11.55;8.98;;;;;;;;;;5077252;28;20032;-38
2021/08/29 07:54:11;;;;;;;5.85;4.45;;;;;;;;;;5080267;28;20103;-38
2021/08/29 07:56:36;;;;;;;4.32;3.92;;;;;;;;;;5076858;28;20444;-38
2021/08/29 07:59:01;;;;;;;2.58;1.48;;;;;;;;;;5075877;28;20029;-38
2021/08/29 08:01:27;;;;;;;4.28;3.03;;;;;;;;;;5075709;28;20067;-38
2021/08/29 08:03:52;;;;;;;6.95;3.33;;;;;;;;;;5080063;28;20395;-38
2021/08/29 08:06:17;;;;;;;4.18;2.83;;;;;;;;;;5071402;28;20083;-38
2021/08/29 08:08:43;;;;;;;3.45;2.35;;;;;;;;;;5078358;28;20025;-38
2021/08/29 08:11:08;;;;;;;2.13;1.50;;;;;;;;;;5078377;28;20068;-37
2021/08/29 08:13:33;;;;;;;3.38;2.35;;;;;;;;;;5077951;28;20066;-35
2021/08/29 08:15:59;;;;;;;5.15;3.45;;;;;;;;;;5079417;28;20115;-37
2021/08/29 08:18:25;;;;;;;6.65;3.92;;;;;;;;;;5075553;28;20578;-35
2021/08/29 08:20:51;;;;;;;5.00;1.38;;;;;;;;;;5075781;28;20032;-35
2021/08/29 08:23:16;;;;;;;2.45;2.15;;;;;;;;;;5075612;28;20519;-35
2021/08/29 08:25:41;;;;;;;10.25;2.50;;;;;;;;;;5077574;28;20602;-35
2021/08/29 08:28:07;;;;;;;4.63;2.88;;;;;;;;;;5075589;28;20023;-35
2021/08/29 08:30:32;;;;;;;2.05;1.17;;;;;;;;;;5077946;28;20024;-36
2021/08/29 08:32:57;;;;;;;7.28;2.13;;;;;;;;;;5078328;28;20020;-35
2021/08/29 08:35:23;;;;;;;2.53;1.02;;;;;;;;;;5076785;28;20016;-35
2021/08/29 08:37:48;;;;;;;4.80;1.83;;;;;;;;;;5074569;28;20480;-36
2021/08/29 08:40:13;;;;;;;3.75;2.08;;;;;;;;;;5074484;28;20035;-36
2021/08/29 08:42:39;;;;;;;1.80;1.45;;;;;;;;;;5079163;28;20020;-36
2021/08/29 08:45:06;;;;;;;2.15;1.73;;;;;;;;;;5073158;28;20068;-36
2021/08/29 08:47:32;;;;;;;3.90;2.22;;;;;;;;;;5079042;28;20028;-36
2021/08/29 08:49:58;;;;;;;8.85;2.10;;;;;;;;;;5073994;28;20034;-36
2021/08/29 08:52:25;;;;;;;2.20;1.67;;;;;;;;;;5077990;28;20028;-36
2021/08/29 08:54:52;;;;;;;3.95;1.83;;;;;;;;;;5078761;28;20032;-36
2021/08/29 08:57:18;;;;;;;1.65;1.30;;;;;;;;;;5077254;28;20098;-36
2021/08/29 08:59:47;;;;;;;9.43;3.22;;;;;;;;;;5076766;28;20463;-36
2021/08/29 09:02:13;;;;;;;3.03;1.80;;;;;;;;;;5075862;28;20082;-36
2021/08/29 09:04:39;;;;;;;6.63;2.90;;;;;;;;;;5077962;28;20495;-35
2021/08/29 09:07:05;;;;;;;6.20;2.03;;;;;;;;;;5070380;28;20031;-36
2021/08/29 09:09:31;;;;;;;2.50;1.55;;;;;;;;;;5074762;28;20388;-37
2021/08/29 09:11:57;;;;;;;4.30;1.83;;;;;;;;;;5078026;28;20047;-35
2021/08/29 09:14:37;;;;;;;2.85;2.22;;;;;;;;;;5073949;28;20677;-35
2021/08/29 09:17:02;;;;;;;3.27;2.13;;;;;;;;;;5072674;28;20036;-35
2021/08/29 09:19:27;;;;;;;2.63;1.65;;;;;;;;;;5073956;28;20013;-36
2021/08/29 09:21:57;;;;;;;2.67;2.03;;;;;;;;;;5078840;28;20455;-40
2021/08/29 09:24:27;;;;;;;4.47;1.88;;;;;;;;;;5070911;28;20020;-36
2021/08/29 09:26:58;;;;;;;2.88;1.90;;;;;;;;;;5077963;28;20009;-36
2021/08/29 09:29:24;;;;;;;12.50;2.33;;;;;;;;;;5075792;28;20107;-36
2021/08/29 09:31:50;;;;;;;3.78;1.90;;;;;;;;;;5079313;28;20123;-36
2021/08/29 09:34:19;;;;;;;2.40;1.70;;;;;;;;;;5072928;28;20025;-36
2021/08/29 09:36:45;;;;;;;9.25;2.35;;;;;;;;;;5080402;28;20052;-36
2021/08/29 09:39:20;;;;;;;1.88;1.13;;;;;;;;;;5076118;28;20076;-36
2021/08/29 09:41:46;;;;;;;5.75;2.42;;;;;;;;;;5078432;28;20056;-36
2021/08/29 09:44:12;;;;;;;6.95;1.70;;;;;;;;;;5075506;28;20515;-36
2021/08/29 09:46:55;;;;;;;3.53;2.75;;;;;;;;;;5071614;28;20636;-35
2021/08/29 09:49:24;;;;;;;3.47;1.63;;;;;;;;;;5081547;28;20021;-36
2021/08/29 09:51:49;;;;;;;5.32;2.15;;;;;;;;;;5073198;28;20028;-36
2021/08/29 09:54:35;;;;;;;10.20;1.98;;;;;;;;;;5072775;28;20668;-34
2021/08/29 09:57:01;;;;;;;17.08;8.52;;;;;;;;;;5075124;28;20042;-35
2021/08/29 09:59:45;;;;;;;3.20;2.15;;;;;;;;;;5073501;28;20925;-35
2021/08/29 10:02:12;;;;;;;9.38;2.60;;;;;;;;;;5073558;28;20144;-35
2021/08/29 10:04:38;;;;;;;3.90;2.03;;;;;;;;;;5073591;28;20450;-35
2021/08/29 10:07:13;;;;;;;5.20;1.83;;;;;;;;;;5074915;28;20020;-35
2021/08/29 10:09:39;;;;;;;4.47;2.40;;;;;;;;;;5075020;28;20023;-35
2021/08/29 10:12:05;;;;;;;1.67;1.42;;;;;;;;;;5076706;28;20024;-35
2021/08/29 10:14:31;;;;;;;5.22;1.67;;;;;;;;;;5073921;28;20512;-35
2021/08/29 10:16:57;;;;;;;5.68;1.65;;;;;;;;;;5075187;28;20020;-35
2021/08/29 10:19:23;;;;;;;4.40;3.38;;;;;;;;;;5075558;28;20016;-34
2021/08/29 10:21:49;;;;;;;5.85;2.50;;;;;;;;;;5077438;28;20073;-34
2021/08/29 10:24:15;;;;;;;3.92;1.42;;;;;;;;;;5076612;28;20708;-34
2021/08/29 10:26:41;;;;;;;3.00;1.90;;;;;;;;;;5075546;28;20031;-34
2021/08/29 10:29:11;;;;;;;4.90;1.67;;;;;;;;;;5072615;28;20024;-35
2021/08/29 10:31:45;;;;;;;3.17;1.65;;;;;;;;;;5071531;28;20085;-35
2021/08/29 10:34:11;;;;;;;10.90;1.77;;;;;;;;;;5075917;28;20028;-35
2021/08/29 10:36:37;;;;;;;1.27;0.80;;;;;;;;;;5073892;28;20074;-34
2021/08/29 10:39:02;;;;;;;3.95;1.50;;;;;;;;;;5071736;28;20505;-35
2021/08/29 10:41:27;;;;;;;7.88;1.85;;;;;;;;;;5075764;28;20055;-35
2021/08/29 10:43:53;;;;;;;3.92;1.60;;;;;;;;;;5070043;28;20043;-35
2021/08/29 10:46:19;;;;;;;8.98;3.13;;;;;;;;;;5073534;28;20023;-35
2021/08/29 10:48:46;;;;;;;4.82;1.80;;;;;;;;;;5075843;28;20095;-35
2021/08/29 10:51:13;;;;;;;3.17;1.50;;;;;;;;;;5074719;28;20020;-35
2021/08/29 10:53:57;;;;;;;2.72;1.45;;;;;;;;;;5074090;28;20024;-35
2021/08/29 10:56:22;;;;;;;3.33;1.20;;;;;;;;;;5077037;28;20068;-35
2021/08/29 10:58:48;;;;;;;4.35;1.42;;;;;;;;;;5072041;28;20060;-35
2021/08/29 11:01:34;;;;;;;3.85;1.38;;;;;;;;;;5088085;28;20017;-35
2021/08/29 11:03:59;;;;;;;3.42;2.13;;;;;;;;;;5070542;28;20052;-35
2021/08/29 11:06:43;;;;;;;2.55;1.60;;;;;;;;;;5075846;28;20040;-35
2021/08/29 11:09:28;;;;;;;3.50;2.30;;;;;;;;;;5075647;28;20078;-35
2021/08/29 11:11:53;;;;;;;2.17;1.50;;;;;;;;;;5075392;28;20032;-35
2021/08/29 11:14:59;;;;;;;2.42;1.30;;;;;;;;;;5074939;28;20031;-36
2021/08/29 11:17:25;;;;;;;3.03;1.67;;;;;;;;;;5059916;28;20723;-35
2021/08/29 11:19:52;;;;;;;3.30;1.67;;;;;;;;;;5059789;28;20291;-35
2021/08/29 11:22:19;;;;;;;2.28;1.38;;;;;;;;;;5066526;28;20025;-35
2021/08/29 11:24:49;;;;;;;7.28;2.08;;;;;;;;;;5072845;28;20114;-35
2021/08/29 11:27:33;;;;;;;2.47;1.05;;;;;;;;;;5076410;28;20515;-35
2021/08/29 11:29:58;;;;;;;6.22;1.77;;;;;;;;;;5073082;28;20070;-35
2021/08/29 11:32:30;;;;;;;3.38;1.48;;;;;;;;;;5075259;28;20423;-35
2021/08/29 11:35:04;;;;;;;1.48;0.93;;;;;;;;;;5075581;28;20028;-35
2021/08/29 11:37:30;;;;;;;10.63;2.20;;;;;;;;;;5073779;28;20020;-36
2021/08/29 11:39:59;;;;;;;4.93;1.85;;;;;;;;;;5074479;28;20012;-37
2021/08/29 11:42:25;;;;;;;3.50;2.35;;;;;;;;;;5090657;28;20027;-36
2021/08/29 11:44:50;;;;;;;3.20;1.70;;;;;;;;;;5092240;28;20017;-37
2021/08/29 11:47:15;;;;;;;2.00;1.08;;;;;;;;;;5076997;28;20108;-36
2021/08/29 11:49:41;;;;;;;5.10;1.98;;;;;;;;;;5074624;28;20372;-36
2021/08/29 11:52:06;;;;;;;6.30;1.27;;;;;;;;;;5071616;28;20050;-36
2021/08/29 11:54:32;;;;;;;2.03;1.33;;;;;;;;;;5069612;28;20008;-36
2021/08/29 11:56:58;;;;;;;8.20;1.85;;;;;;;;;;5072376;28;20483;-37
2021/08/29 11:59:27;;;;;;;2.05;0.95;;;;;;;;;;5073381;28;20021;-37
2021/08/29 12:01:59;;;;;;;3.28;1.70;;;;;;;;;;5067134;28;20105;-37
2021/08/29 12:04:25;;;;;;;6.55;1.15;;;;;;;;;;5073954;28;20194;-37
2021/08/29 12:06:58;;;;;;;2.05;1.50;;;;;;;;;;5073318;28;20111;-36
2021/08/29 12:09:25;;;;;;;3.90;1.42;;;;;;;;;;5070660;28;20021;-37
2021/08/29 12:11:51;;;;;;;5.50;1.63;;;;;;;;;;5072637;28;20036;-37
2021/08/29 12:14:16;;;;;;;3.97;1.35;;;;;;;;;;5069373;28;20021;-37
2021/08/29 12:16:51;;;;;;;7.68;1.55;;;;;;;;;;5085791;28;20052;-36
2021/08/29 12:19:20;;;;;;;1.95;1.23;;;;;;;;;;5071712;28;20039;-36
2021/08/29 12:21:46;;;;;;;1.67;0.70;;;;;;;;;;5070826;28;20151;-37
2021/08/29 12:24:12;;;;;;;2.10;1.27;;;;;;;;;;5070912;28;20490;-36
2021/08/29 12:26:37;;;;;;;1.42;1.23;;;;;;;;;;5072778;28;20020;-36
2021/08/29 12:29:05;;;;;;;1.80;1.25;;;;;;;;;;5076746;28;20019;-37
2021/08/29 12:31:40;;;;;;;6.60;1.73;;;;;;;;;;5076202;28;20024;-37
2021/08/29 12:34:07;;;;;;;1.75;1.33;;;;;;;;;;5094809;28;20074;-37
2021/08/29 12:36:33;;;;;;;1.85;1.20;;;;;;;;;;5076409;28;20027;-36
2021/08/29 12:38:58;;;;;;;2.00;1.02;;;;;;;;;;5078687;28;20091;-37
2021/08/29 12:41:24;;;;;;;2.80;1.88;;;;;;;;;;5078358;28;20386;-37
2021/08/29 12:43:49;;;;;;;3.47;0.98;;;;;;;;;;5076281;28;20016;-38
2021/08/29 12:46:15;;;;;;;2.83;1.33;;;;;;;;;;5077793;28;20383;-37
2021/08/29 12:48:40;;;;;;;1.60;0.55;;;;;;;;;;5077310;28;20055;-37
2021/08/29 12:51:07;;;;;;;2.38;1.33;;;;;;;;;;5079454;28;20020;-36
2021/08/29 12:53:33;;;;;;;1.70;0.95;;;;;;;;;;5073096;28;20021;-37
2021/08/29 12:55:58;;;;;;;6.40;1.25;;;;;;;;;;5077405;28;20601;-36
2021/08/29 12:58:25;;;;;;;3.15;1.05;;;;;;;;;;5075611;28;20034;-37
2021/08/29 13:00:57;;;;;;;2.08;1.45;;;;;;;;;;5078218;28;20021;-37
2021/08/29 13:03:25;;;;;;;1.85;1.10;;;;;;;;;;5072734;28;20547;-37
2021/08/29 13:05:52;;;;;;;1.77;0.70;;;;;;;;;;5080151;28;20072;-37
2021/08/29 13:08:18;;;;;;;2.50;1.05;;;;;;;;;;5077854;28;20104;-37
2021/08/29 13:11:00;;;;;;;14.90;1.27;;;;;;;;;;5077947;28;20111;-37
2021/08/29 13:13:52;;;;;;;4.63;1.85;;;;;;;;;;5075744;28;20078;-37
2021/08/29 13:16:17;;;;;;;3.78;1.25;;;;;;;;;;5077391;28;20028;-37
2021/08/29 13:18:44;;;;;;;11.90;0.85;;;;;;;;;;5074157;28;20284;-37
2021/08/29 13:21:26;;;;;;;1.45;1.00;;;;;;;;;;5075916;28;20059;-37
2021/08/29 13:23:51;;;;;;;1.60;1.10;;;;;;;;;;5073369;28;20038;-37
2021/08/29 13:26:17;;;;;;;2.50;1.27;;;;;;;;;;5077568;28;20647;-35
2021/08/29 13:28:50;;;;;;;2.20;1.08;;;;;;;;;;5071761;28;20082;-36
2021/08/29 13:31:15;;;;;;;2.10;1.38;;;;;;;;;;5077099;28;20039;-37
2021/08/29 13:33:40;;;;;;;6.90;1.67;;;;;;;;;;5073803;28;20025;-37
2021/08/29 13:36:07;;;;;;;3.28;1.60;;;;;;;;;;5075122;28;20055;-37
2021/08/29 13:38:33;;;;;;;3.05;1.25;;;;;;;;;;5077515;28;20061;-37
2021/08/29 13:41:00;;;;;;;2.70;1.25;;;;;;;;;;5068444;28;20024;-37
2021/08/29 13:43:37;;;;;;;4.53;1.55;;;;;;;;;;5073626;28;20016;-37
2021/08/29 13:46:03;;;;;;;5.20;1.55;;;;;;;;;;5072844;28;20052;-37
2021/08/29 13:48:30;;;;;;;5.05;1.90;;;;;;;;;;5070836;28;20551;-36
2021/08/29 13:50:56;;;;;;;1.85;0.85;;;;;;;;;;5074747;28;20055;-36
2021/08/29 13:53:25;;;;;;;0.63;0.40;;;;;;;;;;5073807;28;20510;-36
2021/08/29 13:55:51;;;;;;;1.83;1.27;;;;;;;;;;5077602;28;20024;-36
2021/08/29 13:58:16;;;;;;;3.00;1.02;;;;;;;;;;5072303;28;20032;-37
2021/08/29 14:00:41;;;;;;;1.35;0.93;;;;;;;;;;5072970;28;20353;-37
2021/08/29 14:03:07;;;;;;;2.70;1.25;;;;;;;;;;5071485;28;20135;-36
2021/08/29 14:05:32;;;;;;;1.30;0.77;;;;;;;;;;5075819;28;20093;-36
2021/08/29 14:07:59;;;;;;;3.30;1.73;;;;;;;;;;5076334;28;20109;-37
2021/08/29 14:10:24;;;;;;;3.53;1.33;;;;;;;;;;5075399;28;20165;-36
2021/08/29 14:12:51;;;;;;;3.50;1.42;;;;;;;;;;5076315;28;20110;-36
2021/08/29 14:15:19;;;;;;;0.88;0.70;;;;;;;;;;5074959;28;20038;-37
2021/08/29 14:17:45;;;;;;;1.27;0.85;;;;;;;;;;5072724;28;20032;-37
2021/08/29 14:20:10;;;;;;;1.50;1.08;;;;;;;;;;5075397;28;20031;-36
2021/08/29 14:22:36;;;;;;;2.15;0.88;;;;;;;;;;5071888;28;20671;-37
2021/08/29 14:25:01;;;;;;;5.35;2.13;;;;;;;;;;5075310;28;20094;-37
2021/08/29 14:27:26;;;;;;;5.28;2.25;;;;;;;;;;5070588;28;20091;-37
2021/08/29 14:29:52;;;;;;;2.50;1.00;;;;;;;;;;5075127;28;20074;-37
2021/08/29 14:32:17;;;;;;;2.90;1.48;;;;;;;;;;5069748;28;20044;-37
2021/08/29 14:34:42;;;;;;;3.13;1.42;;;;;;;;;;5076310;28;20380;-38
2021/08/29 14:37:08;;;;;;;3.28;1.15;;;;;;;;;;5076093;28;20535;-37
2021/08/29 14:39:33;;;;;;;9.98;2.70;;;;;;;;;;5069473;28;20025;-36
2021/08/29 14:41:58;;;;;;;3.75;1.02;;;;;;;;;;5076758;28;20615;-37